»·PEaware :: SWA4377 KBOS-KBWI

SWA4377 :: KBOS-KBWI

FLIGHT INFORMATION

Flight Status: Arrived
Operator:
Southwest Airlines
More flights by this operator :: More flights under this callsign
Pilot: Drew L. (13237)
Aircraft: BOEING 737-300
(B733)
More flights by this aircraft type
Origin: KBOS Logan Intl
United States
Destination: KBWI Baltimore-Washington Intl
United States
More flights between these airports :: More routes between these airports
Route: PATSS4 PATSS NELIE CMK J75 MXE NUGGY TRISH3
File this flight plan on PilotEdge
Remarks: Sample flight plan
Altitude:
(Current/Filed)
34,000ft
Speed:
(Current/Filed)
115kts
Departed: 04-Jun-17 08:38 PM
Arrived: 04-Jun-17 09:46 PM
Distance/Time
Traveled:
321nm/1:08
Distance/Time
To Go:
Arrived

Flight Plot

Page will automatically refresh every two minutes.

Flight plan parsing failed; only flown route is shown


Map Options




Map Legend


Flown Route
Filed Route
Departure Airport
Arrival Airport
Navaid (VOR, NDB)
Fix

Horizontal Profiles

Position Reports

Time Latitude Longitude Heading Altitude Ground
Speed
04-Jun-17 20:39 42.156715 -70.975155 262 17378ft 337kts
04-Jun-17 20:40 42.145529 -71.102026 262 20135ft 348kts
04-Jun-17 20:41 42.133912 -71.232074 262 22660ft 358kts
04-Jun-17 20:42 42.121725 -71.366712 262 24957ft 369kts
04-Jun-17 20:43 42.109059 -71.504771 263 27077ft 378kts
04-Jun-17 20:44 42.096024 -71.644969 263 29361ft 376kts
04-Jun-17 20:45 42.079407 -71.779431 259 31860ft 365kts
04-Jun-17 20:46 42.059699 -71.911472 260 33829ft 360kts
04-Jun-17 20:47 42.039807 -72.045472 260 33987ft 366kts
04-Jun-17 20:48 42.019858 -72.178791 261 33976ft 364kts
04-Jun-17 20:49 41.999830 -72.311549 260 33951ft 365kts
04-Jun-17 20:50 41.979589 -72.444621 260 33966ft 365kts
04-Jun-17 20:51 41.959133 -72.577986 260 33949ft 365kts
04-Jun-17 20:52 41.930065 -72.705557 234 33953ft 379kts
04-Jun-17 20:53 41.886090 -72.764872 231 33936ft 384kts
04-Jun-17 20:54 41.829248 -72.841674 232 33946ft 382kts
04-Jun-17 20:55 41.755367 -72.942451 232 33951ft 383kts
04-Jun-17 20:56 41.680686 -73.044070 234 33907ft 390kts
04-Jun-17 20:57 41.603417 -73.148783 233 33968ft 396kts
04-Jun-17 20:58 41.526571 -73.252569 234 33952ft 397kts
04-Jun-17 20:59 41.449151 -73.356749 234 33950ft 396kts
04-Jun-17 21:00 41.376555 -73.454108 234 33950ft 396kts
04-Jun-17 21:01 41.307950 -73.544836 233 33950ft 394kts
04-Jun-17 21:02 41.237939 -73.652356 240 33951ft 387kts
04-Jun-17 21:03 41.172649 -73.763562 239 33934ft 388kts
04-Jun-17 21:04 41.106125 -73.875425 239 33921ft 388kts
04-Jun-17 21:05 41.039420 -73.987512 239 33923ft 388kts
04-Jun-17 21:06 40.973324 -74.098215 239 33904ft 386kts
04-Jun-17 21:07 40.907085 -74.208793 239 33899ft 388kts
04-Jun-17 21:08 40.842552 -74.315643 239 33923ft 388kts
04-Jun-17 21:09 40.776100 -74.425193 239 33918ft 389kts
04-Jun-17 21:10 40.708798 -74.535596 239 33894ft 388kts
04-Jun-17 21:11 40.641699 -74.646013 239 33879ft 389kts
04-Jun-17 21:12 40.639111 -74.650266 239 33876ft 389kts
04-Jun-17 21:13 40.639111 -74.650266 239 33876ft 389kts
04-Jun-17 21:14 40.613944 -74.691704 239 33862ft 389kts
04-Jun-17 21:15 40.542595 -74.799598 235 33870ft 393kts
04-Jun-17 21:16 40.468307 -74.904388 235 33869ft 393kts
04-Jun-17 21:17 40.394209 -75.008693 235 33870ft 393kts
04-Jun-17 21:18 40.320358 -75.112416 235 33488ft 393kts
04-Jun-17 21:19 40.244263 -75.219161 233 30238ft 409kts
04-Jun-17 21:20 40.167269 -75.326711 233 27302ft 412kts
04-Jun-17 21:21 40.091096 -75.432018 232 25190ft 394kts
04-Jun-17 21:22 40.017607 -75.533824 232 23067ft 381kts
04-Jun-17 21:23 39.946514 -75.632153 232 20984ft 371kts
04-Jun-17 21:24 39.888798 -75.727085 240 19130ft 358kts
04-Jun-17 21:25 39.843303 -75.814495 240 17534ft 351kts
04-Jun-17 21:26 39.789360 -75.917962 239 15632ft 344kts
04-Jun-17 21:27 39.736524 -76.018803 239 13779ft 336kts
04-Jun-17 21:28 39.684307 -76.117326 235 12039ft 326kts
04-Jun-17 21:29 39.624975 -76.201302 231 11190ft 322kts
04-Jun-17 21:30 39.568115 -76.281302 232 10671ft 286kts
04-Jun-17 21:31 39.513539 -76.359468 231 9188ft 280kts
04-Jun-17 21:32 39.481123 -76.441480 249 8286ft 238kts
04-Jun-17 21:33 39.455322 -76.519571 250 8172ft 223kts
04-Jun-17 21:34 39.430140 -76.595669 250 8370ft 230kts
04-Jun-17 21:35 39.405106 -76.671190 249 8187ft 223kts
04-Jun-17 21:36 39.379057 -76.740027 239 7796ft 223kts
04-Jun-17 21:37 39.344736 -76.805983 240 7160ft 220kts
04-Jun-17 21:38 39.299088 -76.857353 214 6427ft 227kts
04-Jun-17 21:39 39.260361 -76.915832 242 5797ft 215kts
04-Jun-17 21:40 39.258692 -76.988451 273 4601ft 201kts
04-Jun-17 21:41 39.242495 -77.046190 195 4230ft 209kts
04-Jun-17 21:42 39.198808 -76.998821 128 3791ft 219kts
04-Jun-17 21:43 39.185004 -76.926198 88 3115ft 197kts
04-Jun-17 21:44 39.184852 -76.864106 95 2866ft 152kts
04-Jun-17 21:45 39.181692 -76.810850 96 2044ft 146kts
04-Jun-17 21:46 39.178699 -76.758836 95 1265ft 145kts
04-Jun-17 21:47 39.175750 -76.707262 96 492ft 142kts
04-Jun-17 21:48 39.173466 -76.667580 92 152ft 40kts
04-Jun-17 21:49 39.176900 -76.665357 346 152ft 14kts
04-Jun-17 21:50 39.178058 -76.669972 245 152ft 3kts
04-Jun-17 21:51 39.178055 -76.669981 245 152ft 0kts
04-Jun-17 21:52 39.178055 -76.669981 245 152ft 0kts
04-Jun-17 21:53 39.178055 -76.669981 245 152ft 0kts
04-Jun-17 21:54 39.178055 -76.669981 245 152ft 0kts
04-Jun-17 21:55 39.178055 -76.669981 245 152ft 0kts
04-Jun-17 21:56 39.178055 -76.669981 245 152ft 0kts
04-Jun-17 21:57 39.178055 -76.669981 245 152ft 0kts
04-Jun-17 21:58 39.178055 -76.669981 245 152ft 0kts
04-Jun-17 21:59 39.178055 -76.669981 245 152ft 0kts
04-Jun-17 22:00 39.178055 -76.669981 245 152ft 0kts
04-Jun-17 22:01 39.178055 -76.669981 245 152ft 0kts
04-Jun-17 22:02 39.178055 -76.669981 245 152ft 0kts

Navigation Log

Ident Type
Flight plan parsing failed, navigation log unavailable